Lady Lauren — WDE7767 — position and weather

sailwx.info

Track history (hours):
 
Tides and Currents Weather Stations Pressure Air Temp Water Temp Dewpoint Dewpoint Depression Visibility Wind Speed Wind Dir Waves Ship Positions

Lady Lauren

Owner: Louisiana Marine Towing LLC, Lafayette, LA. More information available from US FCC via Universal Licensing System and Coast Guard Vessel Documentation Center.

Last reported at 2016-Apr-22 12:30 UTC. Time now 2016-May-05 01:04 UTC.
Position N 29°57' W 092°53'.
Warning: this ship's position is 12 days out of date.

Length 22 m; draft 2.1 m.

Type: Towing. MMSI: 367397380.

Date/timePositionNaut miles runAvg speedWind from/ knotsBaromVisibWave heightAir tempDewpointWater temp
2016-Apr-22 12:30N 29°57' W 092°53'5 4.8
2016-Apr-22 11:33N 29°56' W 092°58'5 4.9
2016-Apr-22 10:33N 29°56' W 093°04'4 3.5
2016-Apr-22 09:33N 29°56' W 093°08'1 0.6
2016-Apr-22 08:33N 29°56' W 093°09'3 2.8
2016-Apr-22 07:33N 29°58' W 093°11'4 3.6
2016-Apr-22 06:33N 30°01' W 093°14'3 3.3
2016-Apr-22 05:33N 30°03' W 093°16'3 3.4
2016-Apr-22 04:33N 30°06' W 093°18'0 0.3
2016-Apr-22 03:33N 30°06' W 093°19'3 3.1
2016-Apr-22 02:33N 30°09' W 093°20'5 5.1
2016-Apr-22 01:33N 30°12' W 093°16'1 0.5
2016-Apr-22 00:33N 30°13' W 093°15'0 0.1
2016-Apr-21 23:33N 30°13' W 093°15'0 0.1
2016-Apr-21 22:33N 30°13' W 093°15'0 0.0
2016-Apr-21 21:33N 30°13' W 093°16'3 2.7
2016-Apr-21 20:33N 30°13' W 093°19'3 2.7
2016-Apr-21 19:33N 30°13' W 093°15'3 2.6
2016-Apr-21 18:32N 30°13' W 093°19'0 0.1
2016-Apr-21 17:33N 30°13' W 093°19'0 0.1
2016-Apr-21 16:33N 30°13' W 093°19'1 0.8
2016-Apr-21 15:33N 30°12' W 093°18'2 2.0
2016-Apr-21 14:33N 30°13' W 093°16'2 2.5
2016-Apr-21 13:33N 30°12' W 093°18'3 2.5
2016-Apr-21 12:33N 30°13' W 093°15'3 2.6
2016-Apr-21 11:33N 30°12' W 093°18'1 1.5
2016-Apr-21 10:33N 30°12' W 093°17'1 1.3
2016-Apr-21 09:33N 30°13' W 093°15'0 0.0
2016-Apr-21 08:33N 30°13' W 093°15'0 0.0
2016-Apr-21 07:33N 30°13' W 093°15'0 0.0
2016-Apr-21 06:33N 30°13' W 093°15'0 0.0
2016-Apr-21 05:33N 30°13' W 093°15'0 0.0
2016-Apr-21 04:33N 30°13' W 093°15'0 0.0
2016-Apr-21 03:33N 30°13' W 093°15'0 0.0
2016-Apr-21 02:33N 30°13' W 093°15'0 0.0
2016-Apr-21 01:33N 30°13' W 093°15'1 1.2
2016-Apr-21 00:33N 30°12' W 093°17'0 0.2
2016-Apr-20 23:33N 30°12' W 093°16'1 1.0
2016-Apr-20 22:33N 30°13' W 093°15'0 0.2
2016-Apr-20 21:33N 30°13' W 093°16'2 2.4
2016-Apr-20 20:33N 30°13' W 093°18'2 2.4
2016-Apr-20 19:33N 30°13' W 093°16'0 0.1
2016-Apr-20 18:33N 30°13' W 093°15'2 1.9
2016-Apr-20 17:33N 30°12' W 093°17'2 2.3
2016-Apr-20 16:33N 30°10' W 093°19'4 3.6
2016-Apr-20 15:33N 30°07' W 093°20'2 2.4
2016-Apr-20 14:33N 30°05' W 093°18'2 1.6
2016-Apr-20 13:33N 30°04' W 093°16'3 2.5
2016-Apr-20 12:33N 30°02' W 093°15'3 2.6
2016-Apr-20 11:33N 29°60' W 093°13'2 2.3
2016-Apr-20 10:33N 29°58' W 093°12'2 2.1
2016-Apr-20 09:33N 29°57' W 093°10'2 2.1
2016-Apr-20 08:33N 29°56' W 093°08'3 2.5
2016-Apr-20 07:33N 29°56' W 093°05'1 1.5
2016-Apr-20 06:33N 29°56' W 093°03'0 0.1
2016-Apr-20 05:33N 29°56' W 093°03'0 0.2
2016-Apr-20 04:33N 29°56' W 093°03'2 1.6
2016-Apr-20 03:33N 29°56' W 093°01'3 3.4
2016-Apr-20 02:33N 29°56' W 092°58'1 1.3
2016-Apr-20 01:29N 29°56' W 092°56'0 0.0
2016-Apr-19 16:30N 29°56' W 092°56'3 2.5
2016-Apr-19 15:29N 29°56' W 092°59'5 5.4
2016-Apr-19 14:34N 29°56' W 093°05'4 3.8
2016-Apr-19 13:33N 29°56' W 093°09'4 4.4
2016-Apr-19 12:33N 29°59' W 093°13'4 4.3
2016-Apr-19 11:33N 30°03' W 093°16'0 0.0
2016-Apr-19 10:33N 30°03' W 093°16'0 0.3
2016-Apr-19 09:33N 30°03' W 093°16'0 0.3
2016-Apr-19 08:33N 30°03' W 093°16'0 0.1
2016-Apr-19 07:33N 30°03' W 093°16'0 0.1
2016-Apr-19 06:33N 30°03' W 093°16'0 0.5
2016-Apr-19 05:33N 30°04' W 093°16'0 0.0
2016-Apr-19 04:33N 30°04' W 093°16'0 0.0
2016-Apr-19 03:33N 30°03' W 093°16'0 0.0
2016-Apr-19 02:33N 30°04' W 093°16'0 0.0
2016-Apr-19 01:33N 30°03' W 093°16'0 0.0
2016-Apr-19 00:33N 30°03' W 093°16'0 0.1
2016-Apr-18 23:33N 30°03' W 093°16'1 0.7
2016-Apr-18 22:33N 30°03' W 093°16'0 0.0
2016-Apr-18 21:33N 30°03' W 093°16'0 0.0
2016-Apr-18 20:33N 30°03' W 093°16'0 0.0
2016-Apr-18 19:33N 30°03' W 093°16'0 0.0
2016-Apr-18 18:33N 30°03' W 093°16'0 0.0
2016-Apr-18 17:33N 30°03' W 093°16'0 0.0
2016-Apr-18 16:33N 30°03' W 093°16'0 0.0
2016-Apr-18 15:33N 30°03' W 093°16'1 1.5
2016-Apr-18 14:33N 30°04' W 093°16'1 1.0
2016-Apr-18 13:33N 30°05' W 093°17'2 2.0
2016-Apr-18 12:33N 30°06' W 093°19'3 2.6
2016-Apr-18 11:33N 30°08' W 093°20'0 0.0
2016-Apr-18 10:33N 30°08' W 093°20'0 0.0
2016-Apr-18 09:33N 30°08' W 093°20'0 0.0
2016-Apr-18 08:33N 30°08' W 093°20'0 0.0
2016-Apr-18 07:33N 30°08' W 093°20'0 0.0
2016-Apr-18 06:33N 30°08' W 093°20'0 0.0
2016-Apr-18 05:33N 30°08' W 093°20'0 0.0
2016-Apr-18 04:33N 30°08' W 093°20'0 0.0
2016-Apr-18 03:33N 30°08' W 093°20'0 0.0
2016-Apr-18 02:33N 30°09' W 093°20'1 0.8
2016-Apr-18 01:33N 30°09' W 093°20'5 5.1
2016-Apr-18 00:33N 30°13' W 093°16'0 0.2
2016-Apr-17 23:33N 30°13' W 093°15'0 0.0
2016-Apr-17 22:33N 30°13' W 093°15'3 2.7
2016-Apr-17 21:33N 30°13' W 093°19'3 2.7
2016-Apr-17 20:33N 30°13' W 093°16'0 0.5
2016-Apr-17 19:33N 30°13' W 093°16'2 1.7
2016-Apr-17 18:33N 30°12' W 093°18'2 1.7
2016-Apr-17 17:33N 30°13' W 093°16'2 2.3
2016-Apr-17 16:33N 30°12' W 093°18'3 2.6
2016-Apr-17 15:33N 30°13' W 093°15'0 0.1
2016-Apr-17 14:33N 30°13' W 093°15'3 2.7
2016-Apr-17 13:33N 30°13' W 093°19'0 0.3
2016-Apr-17 12:33N 30°12' W 093°19'3 2.7
2016-Apr-17 11:33N 30°13' W 093°15'0 0.1
2016-Apr-17 10:33N 30°13' W 093°15'0 0.0
2016-Apr-17 09:33N 30°13' W 093°15'0 0.0
2016-Apr-17 08:33N 30°13' W 093°15'0 0.0
2016-Apr-17 07:33N 30°13' W 093°15'0 0.0
2016-Apr-17 06:33N 30°13' W 093°15'0 0.0
2016-Apr-17 05:33N 30°13' W 093°15'0 0.0
2016-Apr-17 04:33N 30°13' W 093°15'0 0.0
2016-Apr-17 03:33N 30°13' W 093°15'2 1.7
2016-Apr-17 02:33N 30°12' W 093°17'1 1.0
2016-Apr-17 01:33N 30°13' W 093°18'0 0.3
2016-Apr-17 00:33N 30°12' W 093°18'3 2.6
2016-Apr-16 23:33N 30°13' W 093°16'2 2.0
2016-Apr-16 22:33N 30°12' W 093°18'1 1.0
2016-Apr-16 21:33N 30°13' W 093°19'0 0.0
2016-Apr-16 20:33N 30°13' W 093°19'0 0.0
2016-Apr-16 19:33N 30°13' W 093°19'0 0.0
2016-Apr-16 18:33N 30°13' W 093°19'0 0.0
2016-Apr-16 17:33N 30°13' W 093°19'0 0.0
2016-Apr-16 16:33N 30°13' W 093°19'0 0.0
2016-Apr-16 15:33N 30°13' W 093°19'0 0.0
2016-Apr-16 14:33N 30°13' W 093°19'0 0.0
2016-Apr-16 13:33N 30°13' W 093°19'0 0.0
2016-Apr-16 12:33N 30°13' W 093°19'1 1.4
2016-Apr-16 11:33N 30°12' W 093°17'2 1.9
2016-Apr-16 10:33N 30°13' W 093°15'0 0.1
2016-Apr-16 09:33N 30°13' W 093°15'0 0.0
2016-Apr-16 08:33N 30°13' W 093°15'0 0.0
2016-Apr-16 07:33N 30°13' W 093°15'0 0.0
2016-Apr-16 06:33N 30°13' W 093°15'0 0.0
2016-Apr-16 05:33N 30°13' W 093°15'0 0.0
2016-Apr-16 04:33N 30°13' W 093°15'0 0.0
2016-Apr-16 03:33N 30°13' W 093°15'0 0.0
2016-Apr-16 02:33N 30°13' W 093°15'0 0.0
2016-Apr-16 01:33N 30°13' W 093°15'0 0.0
2016-Apr-16 00:33N 30°13' W 093°15'0 0.0
2016-Apr-15 23:33N 30°13' W 093°15'0 0.0
2016-Apr-15 22:33N 30°13' W 093°15'0 0.0
2016-Apr-15 21:33N 30°13' W 093°15'0 0.0
2016-Apr-15 20:33N 30°13' W 093°15'2 2.0
2016-Apr-15 19:33N 30°12' W 093°17'2 2.5
2016-Apr-15 18:33N 30°10' W 093°19'3 3.4
2016-Apr-15 17:33N 30°06' W 093°20'2 2.2
2016-Apr-15 16:33N 30°05' W 093°18'1 1.1
2016-Apr-15 15:33N 30°05' W 093°17'0 0.1
2016-Apr-15 14:33N 30°05' W 093°17'2 1.7
2016-Apr-15 13:33N 30°03' W 093°16'2 2.3
2016-Apr-15 12:33N 30°01' W 093°14'3 3.1
2016-Apr-15 11:33N 29°59' W 093°12'3 2.8
2016-Apr-15 10:33N 29°57' W 093°10'3 2.5
2016-Apr-15 09:33N 29°56' W 093°07'3 2.8
2016-Apr-15 08:33N 29°56' W 093°04'6 2.9
2016-Apr-15 06:33N 29°56' W 092°57'2 2.3
2016-Apr-15 05:33N 29°56' W 092°55'  
Track history (hours):
 
Tides and Currents Weather Stations Pressure Air Temp Water Temp Dewpoint Dewpoint Depression Visibility Wind Speed Wind Dir Waves Ship Positions

Lady Lauren

Owner: Louisiana Marine Towing LLC, Lafayette, LA. More information available from US FCC via Universal Licensing System and Coast Guard Vessel Documentation Center.

Last reported at 2016-Apr-22 12:30 UTC. Time now 2016-May-05 01:04 UTC.
Position N 29°57' W 092°53'.
Warning: this ship's position is 12 days out of date.

Length 22 m; draft 2.1 m.

Type: Towing. MMSI: 367397380.

Date/timePositionNaut miles runAvg speedWind from/ knotsBaromVisibWave heightAir tempDewpointWater temp
2016-Apr-22 12:30N 29°57' W 092°53'5 4.8
2016-Apr-22 11:33N 29°56' W 092°58'5 4.9
2016-Apr-22 10:33N 29°56' W 093°04'4 3.5
2016-Apr-22 09:33N 29°56' W 093°08'1 0.6
2016-Apr-22 08:33N 29°56' W 093°09'3 2.8
2016-Apr-22 07:33N 29°58' W 093°11'4 3.6
2016-Apr-22 06:33N 30°01' W 093°14'3 3.3
2016-Apr-22 05:33N 30°03' W 093°16'3 3.4
2016-Apr-22 04:33N 30°06' W 093°18'0 0.3
2016-Apr-22 03:33N 30°06' W 093°19'3 3.1
2016-Apr-22 02:33N 30°09' W 093°20'5 5.1
2016-Apr-22 01:33N 30°12' W 093°16'1 0.5
2016-Apr-22 00:33N 30°13' W 093°15'0 0.1
2016-Apr-21 23:33N 30°13' W 093°15'0 0.1
2016-Apr-21 22:33N 30°13' W 093°15'0 0.0
2016-Apr-21 21:33N 30°13' W 093°16'3 2.7
2016-Apr-21 20:33N 30°13' W 093°19'3 2.7
2016-Apr-21 19:33N 30°13' W 093°15'3 2.6
2016-Apr-21 18:32N 30°13' W 093°19'0 0.1
2016-Apr-21 17:33N 30°13' W 093°19'0 0.1
2016-Apr-21 16:33N 30°13' W 093°19'1 0.8
2016-Apr-21 15:33N 30°12' W 093°18'2 2.0
2016-Apr-21 14:33N 30°13' W 093°16'2 2.5
2016-Apr-21 13:33N 30°12' W 093°18'3 2.5
2016-Apr-21 12:33N 30°13' W 093°15'3 2.6
2016-Apr-21 11:33N 30°12' W 093°18'1 1.5
2016-Apr-21 10:33N 30°12' W 093°17'1 1.3
2016-Apr-21 09:33N 30°13' W 093°15'0 0.0
2016-Apr-21 08:33N 30°13' W 093°15'0 0.0
2016-Apr-21 07:33N 30°13' W 093°15'0 0.0
2016-Apr-21 06:33N 30°13' W 093°15'0 0.0
2016-Apr-21 05:33N 30°13' W 093°15'0 0.0
2016-Apr-21 04:33N 30°13' W 093°15'0 0.0
2016-Apr-21 03:33N 30°13' W 093°15'0 0.0
2016-Apr-21 02:33N 30°13' W 093°15'0 0.0
2016-Apr-21 01:33N 30°13' W 093°15'1 1.2
2016-Apr-21 00:33N 30°12' W 093°17'0 0.2
2016-Apr-20 23:33N 30°12' W 093°16'1 1.0
2016-Apr-20 22:33N 30°13' W 093°15'0 0.2
2016-Apr-20 21:33N 30°13' W 093°16'2 2.4
2016-Apr-20 20:33N 30°13' W 093°18'2 2.4
2016-Apr-20 19:33N 30°13' W 093°16'0 0.1
2016-Apr-20 18:33N 30°13' W 093°15'2 1.9
2016-Apr-20 17:33N 30°12' W 093°17'2 2.3
2016-Apr-20 16:33N 30°10' W 093°19'4 3.6
2016-Apr-20 15:33N 30°07' W 093°20'2 2.4
2016-Apr-20 14:33N 30°05' W 093°18'2 1.6
2016-Apr-20 13:33N 30°04' W 093°16'3 2.5
2016-Apr-20 12:33N 30°02' W 093°15'3 2.6
2016-Apr-20 11:33N 29°60' W 093°13'2 2.3
2016-Apr-20 10:33N 29°58' W 093°12'2 2.1
2016-Apr-20 09:33N 29°57' W 093°10'2 2.1
2016-Apr-20 08:33N 29°56' W 093°08'3 2.5
2016-Apr-20 07:33N 29°56' W 093°05'1 1.5
2016-Apr-20 06:33N 29°56' W 093°03'0 0.1
2016-Apr-20 05:33N 29°56' W 093°03'0 0.2
2016-Apr-20 04:33N 29°56' W 093°03'2 1.6
2016-Apr-20 03:33N 29°56' W 093°01'3 3.4
2016-Apr-20 02:33N 29°56' W 092°58'1 1.3
2016-Apr-20 01:29N 29°56' W 092°56'0 0.0
2016-Apr-19 16:30N 29°56' W 092°56'3 2.5
2016-Apr-19 15:29N 29°56' W 092°59'5 5.4
2016-Apr-19 14:34N 29°56' W 093°05'4 3.8
2016-Apr-19 13:33N 29°56' W 093°09'4 4.4
2016-Apr-19 12:33N 29°59' W 093°13'4 4.3
2016-Apr-19 11:33N 30°03' W 093°16'0 0.0
2016-Apr-19 10:33N 30°03' W 093°16'0 0.3
2016-Apr-19 09:33N 30°03' W 093°16'0 0.3
2016-Apr-19 08:33N 30°03' W 093°16'0 0.1
2016-Apr-19 07:33N 30°03' W 093°16'0 0.1
2016-Apr-19 06:33N 30°03' W 093°16'0 0.5
2016-Apr-19 05:33N 30°04' W 093°16'0 0.0
2016-Apr-19 04:33N 30°04' W 093°16'0 0.0
2016-Apr-19 03:33N 30°03' W 093°16'0 0.0
2016-Apr-19 02:33N 30°04' W 093°16'0 0.0
2016-Apr-19 01:33N 30°03' W 093°16'0 0.0
2016-Apr-19 00:33N 30°03' W 093°16'0 0.1
2016-Apr-18 23:33N 30°03' W 093°16'1 0.7
2016-Apr-18 22:33N 30°03' W 093°16'0 0.0
2016-Apr-18 21:33N 30°03' W 093°16'0 0.0
2016-Apr-18 20:33N 30°03' W 093°16'0 0.0
2016-Apr-18 19:33N 30°03' W 093°16'0 0.0
2016-Apr-18 18:33N 30°03' W 093°16'0 0.0
2016-Apr-18 17:33N 30°03' W 093°16'0 0.0
2016-Apr-18 16:33N 30°03' W 093°16'0 0.0
2016-Apr-18 15:33N 30°03' W 093°16'1 1.5
2016-Apr-18 14:33N 30°04' W 093°16'1 1.0
2016-Apr-18 13:33N 30°05' W 093°17'2 2.0
2016-Apr-18 12:33N 30°06' W 093°19'3 2.6
2016-Apr-18 11:33N 30°08' W 093°20'0 0.0
2016-Apr-18 10:33N 30°08' W 093°20'0 0.0
2016-Apr-18 09:33N 30°08' W 093°20'0 0.0
2016-Apr-18 08:33N 30°08' W 093°20'0 0.0
2016-Apr-18 07:33N 30°08' W 093°20'0 0.0
2016-Apr-18 06:33N 30°08' W 093°20'0 0.0
2016-Apr-18 05:33N 30°08' W 093°20'0 0.0
2016-Apr-18 04:33N 30°08' W 093°20'0 0.0
2016-Apr-18 03:33N 30°08' W 093°20'0 0.0
2016-Apr-18 02:33N 30°09' W 093°20'1 0.8
2016-Apr-18 01:33N 30°09' W 093°20'5 5.1
2016-Apr-18 00:33N 30°13' W 093°16'0 0.2
2016-Apr-17 23:33N 30°13' W 093°15'0 0.0
2016-Apr-17 22:33N 30°13' W 093°15'3 2.7
2016-Apr-17 21:33N 30°13' W 093°19'3 2.7
2016-Apr-17 20:33N 30°13' W 093°16'0 0.5
2016-Apr-17 19:33N 30°13' W 093°16'2 1.7
2016-Apr-17 18:33N 30°12' W 093°18'2 1.7
2016-Apr-17 17:33N 30°13' W 093°16'2 2.3
2016-Apr-17 16:33N 30°12' W 093°18'3 2.6
2016-Apr-17 15:33N 30°13' W 093°15'0 0.1
2016-Apr-17 14:33N 30°13' W 093°15'3 2.7
2016-Apr-17 13:33N 30°13' W 093°19'0 0.3
2016-Apr-17 12:33N 30°12' W 093°19'3 2.7
2016-Apr-17 11:33N 30°13' W 093°15'0 0.1
2016-Apr-17 10:33N 30°13' W 093°15'0 0.0
2016-Apr-17 09:33N 30°13' W 093°15'0 0.0
2016-Apr-17 08:33N 30°13' W 093°15'0 0.0
2016-Apr-17 07:33N 30°13' W 093°15'0 0.0
2016-Apr-17 06:33N 30°13' W 093°15'0 0.0
2016-Apr-17 05:33N 30°13' W 093°15'0 0.0
2016-Apr-17 04:33N 30°13' W 093°15'0 0.0
2016-Apr-17 03:33N 30°13' W 093°15'2 1.7
2016-Apr-17 02:33N 30°12' W 093°17'1 1.0
2016-Apr-17 01:33N 30°13' W 093°18'0 0.3
2016-Apr-17 00:33N 30°12' W 093°18'3 2.6
2016-Apr-16 23:33N 30°13' W 093°16'2 2.0
2016-Apr-16 22:33N 30°12' W 093°18'1 1.0
2016-Apr-16 21:33N 30°13' W 093°19'0 0.0
2016-Apr-16 20:33N 30°13' W 093°19'0 0.0
2016-Apr-16 19:33N 30°13' W 093°19'0 0.0
2016-Apr-16 18:33N 30°13' W 093°19'0 0.0
2016-Apr-16 17:33N 30°13' W 093°19'0 0.0
2016-Apr-16 16:33N 30°13' W 093°19'0 0.0
2016-Apr-16 15:33N 30°13' W 093°19'0 0.0
2016-Apr-16 14:33N 30°13' W 093°19'0 0.0
2016-Apr-16 13:33N 30°13' W 093°19'0 0.0
2016-Apr-16 12:33N 30°13' W 093°19'1 1.4
2016-Apr-16 11:33N 30°12' W 093°17'2 1.9
2016-Apr-16 10:33N 30°13' W 093°15'0 0.1
2016-Apr-16 09:33N 30°13' W 093°15'0 0.0
2016-Apr-16 08:33N 30°13' W 093°15'0 0.0
2016-Apr-16 07:33N 30°13' W 093°15'0 0.0
2016-Apr-16 06:33N 30°13' W 093°15'0 0.0
2016-Apr-16 05:33N 30°13' W 093°15'0 0.0
2016-Apr-16 04:33N 30°13' W 093°15'0 0.0
2016-Apr-16 03:33N 30°13' W 093°15'0 0.0
2016-Apr-16 02:33N 30°13' W 093°15'0 0.0
2016-Apr-16 01:33N 30°13' W 093°15'0 0.0
2016-Apr-16 00:33N 30°13' W 093°15'0 0.0
2016-Apr-15 23:33N 30°13' W 093°15'0 0.0
2016-Apr-15 22:33N 30°13' W 093°15'0 0.0
2016-Apr-15 21:33N 30°13' W 093°15'0 0.0
2016-Apr-15 20:33N 30°13' W 093°15'2 2.0
2016-Apr-15 19:33N 30°12' W 093°17'2 2.5
2016-Apr-15 18:33N 30°10' W 093°19'3 3.4
2016-Apr-15 17:33N 30°06' W 093°20'2 2.2
2016-Apr-15 16:33N 30°05' W 093°18'1 1.1
2016-Apr-15 15:33N 30°05' W 093°17'0 0.1
2016-Apr-15 14:33N 30°05' W 093°17'2 1.7
2016-Apr-15 13:33N 30°03' W 093°16'2 2.3
2016-Apr-15 12:33N 30°01' W 093°14'3 3.1
2016-Apr-15 11:33N 29°59' W 093°12'3 2.8
2016-Apr-15 10:33N 29°57' W 093°10'3 2.5
2016-Apr-15 09:33N 29°56' W 093°07'3 2.8
2016-Apr-15 08:33N 29°56' W 093°04'6 2.9
2016-Apr-15 06:33N 29°56' W 092°57'2 2.3
2016-Apr-15 05:33N 29°56' W 092°55'  

Dump ship's entire track history